sensor_id;sensor_type;location;lat;lon;timestamp;temperature;humidity
49861;DHT22;35761;48.826;9.238;2022-08-21T00:00:54;19.70;41.80
49861;DHT22;35761;48.826;9.238;2022-08-21T00:03:22;19.70;41.40
49861;DHT22;35761;48.826;9.238;2022-08-21T00:05:51;19.60;41.60
49861;DHT22;35761;48.826;9.238;2022-08-21T00:08:20;19.60;42.10
49861;DHT22;35761;48.826;9.238;2022-08-21T00:10:49;19.50;42.00
49861;DHT22;35761;48.826;9.238;2022-08-21T00:13:19;19.50;42.60
49861;DHT22;35761;48.826;9.238;2022-08-21T00:15:49;19.40;42.70
49861;DHT22;35761;48.826;9.238;2022-08-21T00:18:18;19.30;43.00
49861;DHT22;35761;48.826;9.238;2022-08-21T00:20:47;19.20;43.20
49861;DHT22;35761;48.826;9.238;2022-08-21T00:23:16;19.20;44.00
49861;DHT22;35761;48.826;9.238;2022-08-21T00:25:46;19.20;43.50
49861;DHT22;35761;48.826;9.238;2022-08-21T00:28:14;19.20;43.60
49861;DHT22;35761;48.826;9.238;2022-08-21T00:30:44;19.10;44.00
49861;DHT22;35761;48.826;9.238;2022-08-21T00:33:13;19.10;44.40
49861;DHT22;35761;48.826;9.238;2022-08-21T00:35:43;19.10;45.10
49861;DHT22;35761;48.826;9.238;2022-08-21T00:38:11;19.00;45.20
49861;DHT22;35761;48.826;9.238;2022-08-21T00:40:44;19.00;45.70
49861;DHT22;35761;48.826;9.238;2022-08-21T00:43:17;18.90;45.90
49861;DHT22;35761;48.826;9.238;2022-08-21T00:45:49;18.80;46.10
49861;DHT22;35761;48.826;9.238;2022-08-21T00:48:17;18.80;46.40
49861;DHT22;35761;48.826;9.238;2022-08-21T00:50:50;18.80;46.40
49861;DHT22;35761;48.826;9.238;2022-08-21T00:53:23;18.70;46.60
49861;DHT22;35761;48.826;9.238;2022-08-21T00:55:52;18.70;46.90
49861;DHT22;35761;48.826;9.238;2022-08-21T00:58:22;18.70;47.20
49861;DHT22;35761;48.826;9.238;2022-08-21T01:00:53;18.70;47.20
49861;DHT22;35761;48.826;9.238;2022-08-21T01:03:24;18.60;48.20
49861;DHT22;35761;48.826;9.238;2022-08-21T01:05:53;18.60;47.40
49861;DHT22;35761;48.826;9.238;2022-08-21T01:08:22;18.50;47.40
49861;DHT22;35761;48.826;9.238;2022-08-21T01:10:53;18.40;47.50
49861;DHT22;35761;48.826;9.238;2022-08-21T01:13:26;18.40;47.90
49861;DHT22;35761;48.826;9.238;2022-08-21T01:15:59;18.30;48.00
49861;DHT22;35761;48.826;9.238;2022-08-21T01:18:30;18.20;48.00
49861;DHT22;35761;48.826;9.238;2022-08-21T01:21:07;18.20;48.60
49861;DHT22;35761;48.826;9.238;2022-08-21T01:23:41;18.20;47.80
49861;DHT22;35761;48.826;9.238;2022-08-21T01:26:13;18.10;48.10
49861;DHT22;35761;48.826;9.238;2022-08-21T01:28:47;18.10;48.20
49861;DHT22;35761;48.826;9.238;2022-08-21T01:31:19;18.10;48.50
49861;DHT22;35761;48.826;9.238;2022-08-21T01:33:53;18.00;48.50
49861;DHT22;35761;48.826;9.238;2022-08-21T01:36:24;18.00;48.60
49861;DHT22;35761;48.826;9.238;2022-08-21T01:38:52;17.90;48.70
49861;DHT22;35761;48.826;9.238;2022-08-21T01:41:21;17.90;48.80
49861;DHT22;35761;48.826;9.238;2022-08-21T01:43:49;17.90;48.90
49861;DHT22;35761;48.826;9.238;2022-08-21T01:46:18;17.80;48.90
49861;DHT22;35761;48.826;9.238;2022-08-21T01:48:46;17.80;49.20
49861;DHT22;35761;48.826;9.238;2022-08-21T01:51:14;17.80;49.50
49861;DHT22;35761;48.826;9.238;2022-08-21T01:53:44;17.70;49.80
49861;DHT22;35761;48.826;9.238;2022-08-21T01:56:14;17.70;49.60
49861;DHT22;35761;48.826;9.238;2022-08-21T01:58:45;17.70;49.80
49861;DHT22;35761;48.826;9.238;2022-08-21T02:01:15;17.70;49.70
49861;DHT22;35761;48.826;9.238;2022-08-21T02:03:44;17.70;50.30
49861;DHT22;35761;48.826;9.238;2022-08-21T02:06:14;17.70;49.70
49861;DHT22;35761;48.826;9.238;2022-08-21T02:08:46;17.70;49.70
49861;DHT22;35761;48.826;9.238;2022-08-21T02:11:15;17.70;49.70
49861;DHT22;35761;48.826;9.238;2022-08-21T02:13:43;17.60;49.30
49861;DHT22;35761;48.826;9.238;2022-08-21T02:16:12;17.60;49.20
49861;DHT22;35761;48.826;9.238;2022-08-21T02:18:46;17.60;49.50
49861;DHT22;35761;48.826;9.238;2022-08-21T02:21:14;17.50;49.50
49861;DHT22;35761;48.826;9.238;2022-08-21T02:23:44;17.50;49.70
49861;DHT22;35761;48.826;9.238;2022-08-21T02:26:14;17.50;49.80
49861;DHT22;35761;48.826;9.238;2022-08-21T02:28:42;17.40;49.50
49861;DHT22;35761;48.826;9.238;2022-08-21T02:31:12;17.40;49.80
49861;DHT22;35761;48.826;9.238;2022-08-21T02:33:40;17.40;50.10
49861;DHT22;35761;48.826;9.238;2022-08-21T02:36:10;17.40;49.90
49861;DHT22;35761;48.826;9.238;2022-08-21T02:38:41;17.30;50.10
49861;DHT22;35761;48.826;9.238;2022-08-21T02:41:15;17.30;50.20
49861;DHT22;35761;48.826;9.238;2022-08-21T02:43:45;17.20;50.40
49861;DHT22;35761;48.826;9.238;2022-08-21T02:46:15;17.20;50.50
49861;DHT22;35761;48.826;9.238;2022-08-21T02:48:46;17.10;50.50
49861;DHT22;35761;48.826;9.238;2022-08-21T02:51:18;17.10;50.60
49861;DHT22;35761;48.826;9.238;2022-08-21T02:53:49;17.00;50.90
49861;DHT22;35761;48.826;9.238;2022-08-21T02:56:20;17.00;51.10
49861;DHT22;35761;48.826;9.238;2022-08-21T02:58:51;17.00;51.20
49861;DHT22;35761;48.826;9.238;2022-08-21T03:01:21;17.00;51.60
49861;DHT22;35761;48.826;9.238;2022-08-21T03:03:49;16.90;51.90
49861;DHT22;35761;48.826;9.238;2022-08-21T03:06:20;16.90;52.40
49861;DHT22;35761;48.826;9.238;2022-08-21T03:08:49;16.90;52.30
49861;DHT22;35761;48.826;9.238;2022-08-21T03:11:19;16.80;52.40
49861;DHT22;35761;48.826;9.238;2022-08-21T03:13:47;16.80;52.20
49861;DHT22;35761;48.826;9.238;2022-08-21T03:16:16;16.80;52.70
49861;DHT22;35761;48.826;9.238;2022-08-21T03:18:45;16.80;52.90
49861;DHT22;35761;48.826;9.238;2022-08-21T03:21:14;16.80;52.80
49861;DHT22;35761;48.826;9.238;2022-08-21T03:23:42;16.80;52.80
49861;DHT22;35761;48.826;9.238;2022-08-21T03:26:11;16.70;53.10
49861;DHT22;35761;48.826;9.238;2022-08-21T03:28:41;16.70;53.10
49861;DHT22;35761;48.826;9.238;2022-08-21T03:31:09;16.70;53.10
49861;DHT22;35761;48.826;9.238;2022-08-21T03:33:38;16.60;53.00
49861;DHT22;35761;48.826;9.238;2022-08-21T03:36:07;16.60;53.10
49861;DHT22;35761;48.826;9.238;2022-08-21T03:38:38;16.60;53.20
49861;DHT22;35761;48.826;9.238;2022-08-21T03:41:07;16.50;53.30
49861;DHT22;35761;48.826;9.238;2022-08-21T03:43:36;16.50;53.40
49861;DHT22;35761;48.826;9.238;2022-08-21T03:46:07;16.50;53.30
49861;DHT22;35761;48.826;9.238;2022-08-21T03:48:36;16.50;53.30
49861;DHT22;35761;48.826;9.238;2022-08-21T03:51:06;16.40;52.90
49861;DHT22;35761;48.826;9.238;2022-08-21T03:53:34;16.30;52.90
49861;DHT22;35761;48.826;9.238;2022-08-21T03:56:04;16.30;53.10
49861;DHT22;35761;48.826;9.238;2022-08-21T03:58:33;16.30;53.10
49861;DHT22;35761;48.826;9.238;2022-08-21T04:01:04;16.30;52.90
49861;DHT22;35761;48.826;9.238;2022-08-21T04:03:35;16.30;53.20
49861;DHT22;35761;48.826;9.238;2022-08-21T04:06:05;16.10;54.10
49861;DHT22;35761;48.826;9.238;2022-08-21T04:08:34;16.10;54.70
49861;DHT22;35761;48.826;9.238;2022-08-21T04:11:03;16.00;54.60
49861;DHT22;35761;48.826;9.238;2022-08-21T04:13:32;16.00;54.30
49861;DHT22;35761;48.826;9.238;2022-08-21T04:16:10;16.00;54.20
49861;DHT22;35761;48.826;9.238;2022-08-21T04:18:39;16.00;54.30
49861;DHT22;35761;48.826;9.238;2022-08-21T04:21:09;16.00;54.50
49861;DHT22;35761;48.826;9.238;2022-08-21T04:23:39;15.90;54.80
49861;DHT22;35761;48.826;9.238;2022-08-21T04:26:07;15.80;55.10
49861;DHT22;35761;48.826;9.238;2022-08-21T04:28:36;15.80;55.50
49861;DHT22;35761;48.826;9.238;2022-08-21T04:31:04;15.80;55.60
49861;DHT22;35761;48.826;9.238;2022-08-21T04:33:34;15.80;56.00
49861;DHT22;35761;48.826;9.238;2022-08-21T04:36:04;15.80;56.30
49861;DHT22;35761;48.826;9.238;2022-08-21T04:38:33;15.80;56.40
49861;DHT22;35761;48.826;9.238;2022-08-21T04:41:04;15.70;56.50
49861;DHT22;35761;48.826;9.238;2022-08-21T04:43:33;15.70;56.90
49861;DHT22;35761;48.826;9.238;2022-08-21T04:46:02;15.70;57.10
49861;DHT22;35761;48.826;9.238;2022-08-21T04:48:30;15.60;57.30
49861;DHT22;35761;48.826;9.238;2022-08-21T04:51:05;15.60;57.70
49861;DHT22;35761;48.826;9.238;2022-08-21T04:53:37;15.60;57.80
49861;DHT22;35761;48.826;9.238;2022-08-21T04:56:10;15.60;57.90
49861;DHT22;35761;48.826;9.238;2022-08-21T04:58:40;15.60;58.10
49861;DHT22;35761;48.826;9.238;2022-08-21T05:01:13;15.50;58.30
49861;DHT22;35761;48.826;9.238;2022-08-21T05:03:43;15.50;58.30
49861;DHT22;35761;48.826;9.238;2022-08-21T05:06:15;15.50;58.60
49861;DHT22;35761;48.826;9.238;2022-08-21T05:08:46;15.50;58.70
49861;DHT22;35761;48.826;9.238;2022-08-21T05:11:23;15.50;58.60
49861;DHT22;35761;48.826;9.238;2022-08-21T05:13:52;15.50;58.60
49861;DHT22;35761;48.826;9.238;2022-08-21T05:16:23;15.50;59.00
49861;DHT22;35761;48.826;9.238;2022-08-21T05:19:04;15.50;58.90
49861;DHT22;35761;48.826;9.238;2022-08-21T05:21:35;15.60;58.70
49861;DHT22;35761;48.826;9.238;2022-08-21T05:24:04;15.60;58.80
49861;DHT22;35761;48.826;9.238;2022-08-21T05:26:33;15.60;58.60
49861;DHT22;35761;48.826;9.238;2022-08-21T05:29:12;15.60;58.10
49861;DHT22;35761;48.826;9.238;2022-08-21T05:31:42;15.70;58.20
49861;DHT22;35761;48.826;9.238;2022-08-21T05:34:12;15.70;58.30
49861;DHT22;35761;48.826;9.238;2022-08-21T05:36:43;15.70;58.20
49861;DHT22;35761;48.826;9.238;2022-08-21T05:39:12;15.70;58.00
49861;DHT22;35761;48.826;9.238;2022-08-21T05:41:40;15.70;58.20
49861;DHT22;35761;48.826;9.238;2022-08-21T05:44:09;15.80;58.70
49861;DHT22;35761;48.826;9.238;2022-08-21T05:46:38;15.80;58.40
49861;DHT22;35761;48.826;9.238;2022-08-21T05:49:06;15.80;58.10
49861;DHT22;35761;48.826;9.238;2022-08-21T05:51:35;15.70;57.60
49861;DHT22;35761;48.826;9.238;2022-08-21T05:54:05;15.80;57.60
49861;DHT22;35761;48.826;9.238;2022-08-21T05:56:34;15.80;57.70
49861;DHT22;35761;48.826;9.238;2022-08-21T05:59:02;15.70;57.90
49861;DHT22;35761;48.826;9.238;2022-08-21T06:01:34;15.70;58.60
49861;DHT22;35761;48.826;9.238;2022-08-21T06:04:03;15.70;58.70
49861;DHT22;35761;48.826;9.238;2022-08-21T06:06:32;15.70;59.00
49861;DHT22;35761;48.826;9.238;2022-08-21T06:09:02;15.70;59.40
49861;DHT22;35761;48.826;9.238;2022-08-21T06:11:32;15.70;60.10
49861;DHT22;35761;48.826;9.238;2022-08-21T06:14:01;15.80;61.00
49861;DHT22;35761;48.826;9.238;2022-08-21T06:16:30;15.80;59.20
49861;DHT22;35761;48.826;9.238;2022-08-21T06:18:58;15.90;59.60
49861;DHT22;35761;48.826;9.238;2022-08-21T06:21:29;15.80;59.70
49861;DHT22;35761;48.826;9.238;2022-08-21T06:23:57;15.90;60.50
49861;DHT22;35761;48.826;9.238;2022-08-21T06:26:26;15.90;59.70
49861;DHT22;35761;48.826;9.238;2022-08-21T06:28:56;15.90;57.50
49861;DHT22;35761;48.826;9.238;2022-08-21T06:31:26;15.90;56.60
49861;DHT22;35761;48.826;9.238;2022-08-21T06:33:55;15.90;56.90
49861;DHT22;35761;48.826;9.238;2022-08-21T06:36:24;16.00;58.60
49861;DHT22;35761;48.826;9.238;2022-08-21T06:38:53;16.10;58.70
49861;DHT22;35761;48.826;9.238;2022-08-21T06:41:24;16.10;56.50
49861;DHT22;35761;48.826;9.238;2022-08-21T06:43:53;16.10;56.50
49861;DHT22;35761;48.826;9.238;2022-08-21T06:46:24;16.20;56.30
49861;DHT22;35761;48.826;9.238;2022-08-21T06:48:56;16.10;56.50
49861;DHT22;35761;48.826;9.238;2022-08-21T06:51:25;16.20;56.20
49861;DHT22;35761;48.826;9.238;2022-08-21T06:53:55;16.20;55.70
49861;DHT22;35761;48.826;9.238;2022-08-21T06:56:25;16.20;55.90
49861;DHT22;35761;48.826;9.238;2022-08-21T06:58:54;16.30;57.20
49861;DHT22;35761;48.826;9.238;2022-08-21T07:01:25;16.30;58.00
49861;DHT22;35761;48.826;9.238;2022-08-21T07:03:55;16.40;57.70
49861;DHT22;35761;48.826;9.238;2022-08-21T07:06:23;16.40;57.00
49861;DHT22;35761;48.826;9.238;2022-08-21T07:08:53;16.40;56.20
49861;DHT22;35761;48.826;9.238;2022-08-21T07:11:25;16.50;56.00
49861;DHT22;35761;48.826;9.238;2022-08-21T07:13:53;16.50;56.80
49861;DHT22;35761;48.826;9.238;2022-08-21T07:16:24;16.60;57.70
49861;DHT22;35761;48.826;9.238;2022-08-21T07:18:53;16.60;57.80
49861;DHT22;35761;48.826;9.238;2022-08-21T07:21:22;16.70;56.80
49861;DHT22;35761;48.826;9.238;2022-08-21T07:23:52;16.70;54.50
49861;DHT22;35761;48.826;9.238;2022-08-21T07:26:22;16.80;53.40
49861;DHT22;35761;48.826;9.238;2022-08-21T07:28:51;16.80;53.60
49861;DHT22;35761;48.826;9.238;2022-08-21T07:31:22;16.80;53.60
49861;DHT22;35761;48.826;9.238;2022-08-21T07:33:53;16.90;53.40
49861;DHT22;35761;48.826;9.238;2022-08-21T07:36:21;16.90;53.60
49861;DHT22;35761;48.826;9.238;2022-08-21T07:38:51;17.00;52.60
49861;DHT22;35761;48.826;9.238;2022-08-21T07:41:21;17.10;50.90
49861;DHT22;35761;48.826;9.238;2022-08-21T07:43:51;17.10;52.20
49861;DHT22;35761;48.826;9.238;2022-08-21T07:46:20;17.20;52.10
49861;DHT22;35761;48.826;9.238;2022-08-21T07:48:49;17.20;51.50
49861;DHT22;35761;48.826;9.238;2022-08-21T07:51:24;17.30;49.30
49861;DHT22;35761;48.826;9.238;2022-08-21T07:53:56;17.30;51.30
49861;DHT22;35761;48.826;9.238;2022-08-21T07:56:25;17.40;50.70
49861;DHT22;35761;48.826;9.238;2022-08-21T07:58:54;17.40;49.40
49861;DHT22;35761;48.826;9.238;2022-08-21T08:01:24;17.50;50.20
49861;DHT22;35761;48.826;9.238;2022-08-21T08:03:54;17.50;50.90
49861;DHT22;35761;48.826;9.238;2022-08-21T08:06:23;17.50;50.00
49861;DHT22;35761;48.826;9.238;2022-08-21T08:08:53;17.50;49.20
49861;DHT22;35761;48.826;9.238;2022-08-21T08:11:21;17.60;50.20
49861;DHT22;35761;48.826;9.238;2022-08-21T08:13:51;17.60;49.70
49861;DHT22;35761;48.826;9.238;2022-08-21T08:16:20;17.60;47.30
49861;DHT22;35761;48.826;9.238;2022-08-21T08:18:49;17.70;48.30
49861;DHT22;35761;48.826;9.238;2022-08-21T08:21:19;17.70;48.00
49861;DHT22;35761;48.826;9.238;2022-08-21T08:23:48;17.80;47.80
49861;DHT22;35761;48.826;9.238;2022-08-21T08:26:17;17.80;48.20
49861;DHT22;35761;48.826;9.238;2022-08-21T08:28:45;17.80;48.60
49861;DHT22;35761;48.826;9.238;2022-08-21T08:31:14;17.90;48.50
49861;DHT22;35761;48.826;9.238;2022-08-21T08:33:42;18.00;48.00
49861;DHT22;35761;48.826;9.238;2022-08-21T08:36:15;18.10;48.30
49861;DHT22;35761;48.826;9.238;2022-08-21T08:38:47;18.10;47.30
49861;DHT22;35761;48.826;9.238;2022-08-21T08:41:18;18.20;46.50
49861;DHT22;35761;48.826;9.238;2022-08-21T08:43:52;18.30;46.60
49861;DHT22;35761;48.826;9.238;2022-08-21T08:46:31;18.30;44.40
49861;DHT22;35761;48.826;9.238;2022-08-21T08:49:08;18.40;43.80
49861;DHT22;35761;48.826;9.238;2022-08-21T08:51:46;18.50;42.40
49861;DHT22;35761;48.826;9.238;2022-08-21T08:54:26;18.70;42.70
49861;DHT22;35761;48.826;9.238;2022-08-21T08:56:59;18.70;43.50
49861;DHT22;35761;48.826;9.238;2022-08-21T08:59:38;18.80;43.90
49861;DHT22;35761;48.826;9.238;2022-08-21T09:02:11;18.80;43.60
49861;DHT22;35761;48.826;9.238;2022-08-21T09:04:41;18.80;43.30
49861;DHT22;35761;48.826;9.238;2022-08-21T09:07:16;18.90;43.00
49861;DHT22;35761;48.826;9.238;2022-08-21T09:10:03;18.90;42.80
49861;DHT22;35761;48.826;9.238;2022-08-21T09:12:44;19.00;41.80
49861;DHT22;35761;48.826;9.238;2022-08-21T09:15:24;19.00;41.40
49861;DHT22;35761;48.826;9.238;2022-08-21T09:18:17;19.00;42.00
49861;DHT22;35761;48.826;9.238;2022-08-21T09:21:03;19.10;42.40
49861;DHT22;35761;48.826;9.238;2022-08-21T09:23:47;19.10;42.30
49861;DHT22;35761;48.826;9.238;2022-08-21T09:26:24;19.20;42.60
49861;DHT22;35761;48.826;9.238;2022-08-21T09:28:56;19.30;42.80
49861;DHT22;35761;48.826;9.238;2022-08-21T09:31:27;19.30;42.10
49861;DHT22;35761;48.826;9.238;2022-08-21T09:33:58;19.40;42.30
49861;DHT22;35761;48.826;9.238;2022-08-21T09:36:35;19.40;41.60
49861;DHT22;35761;48.826;9.238;2022-08-21T09:39:06;19.50;42.30
49861;DHT22;35761;48.826;9.238;2022-08-21T09:41:37;19.50;38.80
49861;DHT22;35761;48.826;9.238;2022-08-21T09:44:07;19.60;36.50
49861;DHT22;35761;48.826;9.238;2022-08-21T09:46:36;19.60;36.80
49861;DHT22;35761;48.826;9.238;2022-08-21T09:49:04;19.70;38.80
49861;DHT22;35761;48.826;9.238;2022-08-21T09:51:50;19.70;39.40
49861;DHT22;35761;48.826;9.238;2022-08-21T09:54:27;19.80;38.50
49861;DHT22;35761;48.826;9.238;2022-08-21T09:57:00;19.80;36.60
49861;DHT22;35761;48.826;9.238;2022-08-21T09:59:50;19.90;37.30
49861;DHT22;35761;48.826;9.238;2022-08-21T10:02:27;20.00;36.30
49861;DHT22;35761;48.826;9.238;2022-08-21T10:05:00;20.00;35.30
49861;DHT22;35761;48.826;9.238;2022-08-21T10:07:31;20.10;35.80
49861;DHT22;35761;48.826;9.238;2022-08-21T10:10:05;20.20;35.40
49861;DHT22;35761;48.826;9.238;2022-08-21T10:12:45;20.20;34.90
49861;DHT22;35761;48.826;9.238;2022-08-21T10:15:21;20.30;35.60
49861;DHT22;35761;48.826;9.238;2022-08-21T10:18:01;20.40;34.50
49861;DHT22;35761;48.826;9.238;2022-08-21T10:20:37;20.50;34.10
49861;DHT22;35761;48.826;9.238;2022-08-21T10:23:25;20.50;33.70
49861;DHT22;35761;48.826;9.238;2022-08-21T10:26:07;20.50;33.50
49861;DHT22;35761;48.826;9.238;2022-08-21T10:28:45;20.60;34.80
49861;DHT22;35761;48.826;9.238;2022-08-21T10:31:24;20.60;35.40
49861;DHT22;35761;48.826;9.238;2022-08-21T10:34:12;20.70;35.00
49861;DHT22;35761;48.826;9.238;2022-08-21T10:37:01;20.80;34.10
49861;DHT22;35761;48.826;9.238;2022-08-21T10:39:41;20.80;33.60
49861;DHT22;35761;48.826;9.238;2022-08-21T10:42:23;20.90;33.70
49861;DHT22;35761;48.826;9.238;2022-08-21T10:45:10;21.00;31.30
49861;DHT22;35761;48.826;9.238;2022-08-21T10:47:47;21.00;32.90
49861;DHT22;35761;48.826;9.238;2022-08-21T10:50:29;21.00;33.70
49861;DHT22;35761;48.826;9.238;2022-08-21T10:53:16;21.10;32.40
49861;DHT22;35761;48.826;9.238;2022-08-21T10:55:55;21.20;30.50
49861;DHT22;35761;48.826;9.238;2022-08-21T10:58:29;21.30;29.60
49861;DHT22;35761;48.826;9.238;2022-08-21T11:01:05;21.30;30.10
49861;DHT22;35761;48.826;9.238;2022-08-21T11:03:41;21.30;30.10
49861;DHT22;35761;48.826;9.238;2022-08-21T11:06:16;21.50;29.00
49861;DHT22;35761;48.826;9.238;2022-08-21T11:08:51;21.60;28.10
49861;DHT22;35761;48.826;9.238;2022-08-21T11:11:26;21.80;27.60
49861;DHT22;35761;48.826;9.238;2022-08-21T11:14:08;21.90;27.50
49861;DHT22;35761;48.826;9.238;2022-08-21T11:16:43;21.90;27.50
49861;DHT22;35761;48.826;9.238;2022-08-21T11:19:21;22.00;28.70
49861;DHT22;35761;48.826;9.238;2022-08-21T11:21:56;22.00;28.60
49861;DHT22;35761;48.826;9.238;2022-08-21T11:24:32;22.10;28.70
49861;DHT22;35761;48.826;9.238;2022-08-21T11:27:08;22.10;28.60
49861;DHT22;35761;48.826;9.238;2022-08-21T11:29:48;22.10;29.50
49861;DHT22;35761;48.826;9.238;2022-08-21T11:35:34;22.10;28.80
49861;DHT22;35761;48.826;9.238;2022-08-21T11:38:17;22.20;28.10
49861;DHT22;35761;48.826;9.238;2022-08-21T11:41:08;22.30;27.50
49861;DHT22;35761;48.826;9.238;2022-08-21T11:43:51;22.30;29.10
49861;DHT22;35761;48.826;9.238;2022-08-21T11:46:31;22.40;27.60
49861;DHT22;35761;48.826;9.238;2022-08-21T11:49:21;22.50;28.00
49861;DHT22;35761;48.826;9.238;2022-08-21T11:52:05;22.60;26.70
49861;DHT22;35761;48.826;9.238;2022-08-21T11:54:42;22.60;28.00
49861;DHT22;35761;48.826;9.238;2022-08-21T11:57:18;22.70;27.90
49861;DHT22;35761;48.826;9.238;2022-08-21T11:59:52;22.80;26.80
49861;DHT22;35761;48.826;9.238;2022-08-21T12:02:31;22.90;25.90
49861;DHT22;35761;48.826;9.238;2022-08-21T12:05:05;23.00;26.00
49861;DHT22;35761;48.826;9.238;2022-08-21T12:07:38;23.10;24.30
49861;DHT22;35761;48.826;9.238;2022-08-21T12:10:10;23.10;24.30
49861;DHT22;35761;48.826;9.238;2022-08-21T12:12:44;23.20;27.50
49861;DHT22;35761;48.826;9.238;2022-08-21T12:15:17;23.20;32.90
49861;DHT22;35761;48.826;9.238;2022-08-21T12:17:57;23.30;25.40
49861;DHT22;35761;48.826;9.238;2022-08-21T12:20:40;23.30;26.60
49861;DHT22;35761;48.826;9.238;2022-08-21T12:23:29;23.50;23.30
49861;DHT22;35761;48.826;9.238;2022-08-21T12:26:13;23.60;23.30
49861;DHT22;35761;48.826;9.238;2022-08-21T12:31:22;23.70;23.90
49861;DHT22;35761;48.826;9.238;2022-08-21T12:33:55;23.90;24.80
49861;DHT22;35761;48.826;9.238;2022-08-21T12:36:35;24.00;24.10
49861;DHT22;35761;48.826;9.238;2022-08-21T12:39:14;24.10;24.30
49861;DHT22;35761;48.826;9.238;2022-08-21T12:41:49;24.30;24.30
49861;DHT22;35761;48.826;9.238;2022-08-21T12:44:24;24.40;22.70
49861;DHT22;35761;48.826;9.238;2022-08-21T12:47:01;24.50;23.00
49861;DHT22;35761;48.826;9.238;2022-08-21T12:49:35;24.60;22.60
49861;DHT22;35761;48.826;9.238;2022-08-21T12:52:11;24.80;21.70
49861;DHT22;35761;48.826;9.238;2022-08-21T12:54:47;24.90;22.40
49861;DHT22;35761;48.826;9.238;2022-08-21T12:57:21;25.10;21.80
49861;DHT22;35761;48.826;9.238;2022-08-21T12:59:55;25.20;22.50
49861;DHT22;35761;48.826;9.238;2022-08-21T13:02:29;25.40;21.40
49861;DHT22;35761;48.826;9.238;2022-08-21T13:05:02;25.60;20.20
49861;DHT22;35761;48.826;9.238;2022-08-21T13:07:33;25.70;20.00
49861;DHT22;35761;48.826;9.238;2022-08-21T13:10:12;26.00;19.70
49861;DHT22;35761;48.826;9.238;2022-08-21T13:12:44;26.10;19.70
49861;DHT22;35761;48.826;9.238;2022-08-21T13:15:14;26.20;20.00
49861;DHT22;35761;48.826;9.238;2022-08-21T13:17:59;26.30;20.00
49861;DHT22;35761;48.826;9.238;2022-08-21T13:20:33;26.40;19.50
49861;DHT22;35761;48.826;9.238;2022-08-21T13:23:15;26.50;20.30
49861;DHT22;35761;48.826;9.238;2022-08-21T13:25:48;26.70;18.00
49861;DHT22;35761;48.826;9.238;2022-08-21T13:28:17;26.70;18.90
49861;DHT22;35761;48.826;9.238;2022-08-21T13:30:48;26.90;18.60
49861;DHT22;35761;48.826;9.238;2022-08-21T13:33:20;27.10;17.40
49861;DHT22;35761;48.826;9.238;2022-08-21T13:36:07;27.10;16.90
49861;DHT22;35761;48.826;9.238;2022-08-21T13:38:40;27.10;16.20
49861;DHT22;35761;48.826;9.238;2022-08-21T13:41:19;27.30;16.90
49861;DHT22;35761;48.826;9.238;2022-08-21T13:43:55;27.40;18.90
49861;DHT22;35761;48.826;9.238;2022-08-21T13:46:29;27.70;15.80
49861;DHT22;35761;48.826;9.238;2022-08-21T13:49:00;27.80;18.20
49861;DHT22;35761;48.826;9.238;2022-08-21T13:51:32;28.00;18.50
49861;DHT22;35761;48.826;9.238;2022-08-21T13:54:01;28.20;17.50
49861;DHT22;35761;48.826;9.238;2022-08-21T13:56:41;28.40;18.60
49861;DHT22;35761;48.826;9.238;2022-08-21T13:59:10;28.50;18.40
49861;DHT22;35761;48.826;9.238;2022-08-21T14:01:49;28.80;15.80
49861;DHT22;35761;48.826;9.238;2022-08-21T14:04:21;29.00;17.30
49861;DHT22;35761;48.826;9.238;2022-08-21T14:06:52;29.10;17.20
49861;DHT22;35761;48.826;9.238;2022-08-21T14:09:25;29.30;18.00
49861;DHT22;35761;48.826;9.238;2022-08-21T14:12:00;29.40;17.60
49861;DHT22;35761;48.826;9.238;2022-08-21T14:14:33;29.50;17.90
49861;DHT22;35761;48.826;9.238;2022-08-21T14:17:04;29.70;17.00
49861;DHT22;35761;48.826;9.238;2022-08-21T14:19:51;29.80;17.00
49861;DHT22;35761;48.826;9.238;2022-08-21T14:25:00;30.10;12.40
49861;DHT22;35761;48.826;9.238;2022-08-21T14:27:35;30.10;15.80
49861;DHT22;35761;48.826;9.238;2022-08-21T14:30:11;30.30;15.40
49861;DHT22;35761;48.826;9.238;2022-08-21T14:32:45;30.50;13.90
49861;DHT22;35761;48.826;9.238;2022-08-21T14:35:14;30.60;13.40
49861;DHT22;35761;48.826;9.238;2022-08-21T14:37:50;30.70;15.20
49861;DHT22;35761;48.826;9.238;2022-08-21T14:40:20;30.80;12.90
49861;DHT22;35761;48.826;9.238;2022-08-21T14:42:52;31.00;13.10
49861;DHT22;35761;48.826;9.238;2022-08-21T14:45:26;31.00;13.80
49861;DHT22;35761;48.826;9.238;2022-08-21T14:47:58;31.10;14.80
49861;DHT22;35761;48.826;9.238;2022-08-21T14:50:27;31.10;15.00
49861;DHT22;35761;48.826;9.238;2022-08-21T14:52:55;31.30;14.60
49861;DHT22;35761;48.826;9.238;2022-08-21T14:55:25;31.50;13.00
49861;DHT22;35761;48.826;9.238;2022-08-21T14:57:55;31.60;14.10
49861;DHT22;35761;48.826;9.238;2022-08-21T15:00:25;31.60;14.60
49861;DHT22;35761;48.826;9.238;2022-08-21T15:03:02;31.70;14.50
49861;DHT22;35761;48.826;9.238;2022-08-21T15:05:31;31.80;13.70
49861;DHT22;35761;48.826;9.238;2022-08-21T15:08:00;31.90;13.90
49861;DHT22;35761;48.826;9.238;2022-08-21T15:10:30;32.10;11.60
49861;DHT22;35761;48.826;9.238;2022-08-21T15:13:02;32.20;13.80
49861;DHT22;35761;48.826;9.238;2022-08-21T15:15:34;32.20;13.70
49861;DHT22;35761;48.826;9.238;2022-08-21T15:18:04;32.30;13.50
49861;DHT22;35761;48.826;9.238;2022-08-21T15:20:33;32.30;13.30
49861;DHT22;35761;48.826;9.238;2022-08-21T15:23:02;32.40;13.00
49861;DHT22;35761;48.826;9.238;2022-08-21T15:25:31;32.50;13.80
49861;DHT22;35761;48.826;9.238;2022-08-21T15:28:00;32.60;13.20
49861;DHT22;35761;48.826;9.238;2022-08-21T15:30:30;32.70;12.80
49861;DHT22;35761;48.826;9.238;2022-08-21T15:32:59;32.80;12.40
49861;DHT22;35761;48.826;9.238;2022-08-21T15:35:27;32.90;12.90
49861;DHT22;35761;48.826;9.238;2022-08-21T15:40:25;33.00;12.50
49861;DHT22;35761;48.826;9.238;2022-08-21T15:42:57;33.10;12.70
49861;DHT22;35761;48.826;9.238;2022-08-21T15:45:28;33.10;12.90
49861;DHT22;35761;48.826;9.238;2022-08-21T15:47:57;33.20;13.10
49861;DHT22;35761;48.826;9.238;2022-08-21T15:50:26;33.20;12.60
49861;DHT22;35761;48.826;9.238;2022-08-21T15:52:58;33.30;12.10
49861;DHT22;35761;48.826;9.238;2022-08-21T15:55:27;33.30;11.60
49861;DHT22;35761;48.826;9.238;2022-08-21T15:57:55;33.50;11.30
49861;DHT22;35761;48.826;9.238;2022-08-21T16:00:32;33.50;11.60
49861;DHT22;35761;48.826;9.238;2022-08-21T16:03:04;33.50;11.90
49861;DHT22;35761;48.826;9.238;2022-08-21T16:05:34;33.60;11.80
49861;DHT22;35761;48.826;9.238;2022-08-21T16:08:02;33.60;11.60
49861;DHT22;35761;48.826;9.238;2022-08-21T16:10:31;33.70;10.20
49861;DHT22;35761;48.826;9.238;2022-08-21T16:13:02;33.90;9.90